createdAt,value
2018-08-23T00:01:28.852Z,20.14
2018-08-23T00:03:55.643Z,20.16
2018-08-23T00:06:22.569Z,20.11
2018-08-23T00:08:49.272Z,20.08
2018-08-23T00:11:15.797Z,19.98
2018-08-23T00:13:42.586Z,19.86
2018-08-23T00:16:09.101Z,19.80
2018-08-23T00:18:35.573Z,19.80
2018-08-23T00:21:03.398Z,19.78
2018-08-23T00:23:30.259Z,19.74
2018-08-23T00:25:56.710Z,19.72
2018-08-23T00:28:23.202Z,19.70
2018-08-23T00:30:49.702Z,19.66
2018-08-23T00:33:16.461Z,19.62
2018-08-23T00:35:42.945Z,19.57
2018-08-23T00:38:09.429Z,19.62
2018-08-23T00:40:36.173Z,19.56
2018-08-23T00:43:02.661Z,19.50
2018-08-23T00:45:29.118Z,19.43
2018-08-23T00:47:56.907Z,19.34
2018-08-23T00:50:23.392Z,19.23
2018-08-23T00:52:49.849Z,19.16
2018-08-23T00:55:16.322Z,19.14
2018-08-23T00:57:43.063Z,19.08
2018-08-23T01:00:09.510Z,18.99
2018-08-23T01:02:36.007Z,18.97
2018-08-23T01:05:02.486Z,18.99
2018-08-23T01:07:31.198Z,19.02
2018-08-23T01:09:57.677Z,18.92
2018-08-23T01:12:24.159Z,18.85
2018-08-23T01:14:50.647Z,18.84
2018-08-23T01:17:17.385Z,18.85
2018-08-23T01:19:43.871Z,18.77
2018-08-23T01:22:10.332Z,18.73
2018-08-23T01:24:37.082Z,18.71
2018-08-23T01:27:03.563Z,18.70
2018-08-23T01:29:30.019Z,18.67
2018-08-23T01:31:56.470Z,18.61
2018-08-23T01:34:23.243Z,18.51
2018-08-23T01:36:49.750Z,18.46
2018-08-23T01:39:17.409Z,18.38
2018-08-23T01:41:43.869Z,18.44
2018-08-23T01:44:10.641Z,18.51
2018-08-23T01:46:37.159Z,18.57
2018-08-23T01:49:03.654Z,18.67
2018-08-23T01:51:30.139Z,18.76
2018-08-23T01:53:56.934Z,18.70
2018-08-23T01:56:23.425Z,18.76
2018-08-23T01:58:49.903Z,18.77
2018-08-23T02:01:16.414Z,18.81
2018-08-23T02:03:43.166Z,18.69
2018-08-23T02:06:09.651Z,18.58
2018-08-23T02:08:36.106Z,18.48
2018-08-23T02:11:02.562Z,18.43
2018-08-23T02:13:29.340Z,18.46
2018-08-23T02:15:55.817Z,18.47
2018-08-23T02:18:22.276Z,18.59
2018-08-23T02:20:48.750Z,18.46
2018-08-23T02:23:15.509Z,18.38
2018-08-23T02:25:41.992Z,18.34
2018-08-23T02:28:08.465Z,18.24
2018-08-23T02:30:34.964Z,18.17
2018-08-23T02:33:01.754Z,18.05
2018-08-23T02:35:28.252Z,17.93
2018-08-23T02:37:54.735Z,17.89
2018-08-23T02:40:21.539Z,17.90
2018-08-23T02:42:48.035Z,17.94
2018-08-23T02:45:14.485Z,17.95
2018-08-23T02:47:40.950Z,17.99
2018-08-23T02:50:07.742Z,17.97
2018-08-23T02:52:34.194Z,17.99
2018-08-23T02:55:00.650Z,17.92
2018-08-23T02:57:27.101Z,17.83
2018-08-23T02:59:53.846Z,17.73
2018-08-23T03:02:20.391Z,17.73
2018-08-23T03:04:46.875Z,17.79
2018-08-23T03:07:13.676Z,17.89
2018-08-23T03:09:40.120Z,17.99
2018-08-23T03:12:06.607Z,18.05
2018-08-23T03:14:33.138Z,18.06
2018-08-23T03:16:59.914Z,18.08
2018-08-23T03:19:26.419Z,17.95
2018-08-23T03:21:52.873Z,17.86
2018-08-23T03:24:19.348Z,17.91
2018-08-23T03:26:46.382Z,17.92
2018-08-23T03:29:12.874Z,17.95
2018-08-23T03:31:39.342Z,17.97
2018-08-23T03:34:06.095Z,17.99
2018-08-23T03:36:32.574Z,17.97
2018-08-23T03:38:59.058Z,17.93
2018-08-23T03:41:26.497Z,17.84
2018-08-23T03:43:53.241Z,17.79
2018-08-23T03:46:19.735Z,17.77
2018-08-23T03:48:46.226Z,17.78
2018-08-23T03:51:12.689Z,17.77
2018-08-23T03:53:39.446Z,17.76
2018-08-23T03:56:05.914Z,17.68
2018-08-23T03:58:32.394Z,17.64
2018-08-23T04:00:59.529Z,17.52
2018-08-23T04:03:26.299Z,17.46
2018-08-23T04:05:52.787Z,17.39
2018-08-23T04:08:19.267Z,17.29
2018-08-23T04:10:45.725Z,17.30
2018-08-23T04:13:12.514Z,17.39
2018-08-23T04:15:40.642Z,17.34
2018-08-23T04:18:07.131Z,17.26
2018-08-23T04:20:35.076Z,17.21
2018-08-23T04:23:01.596Z,17.24
2018-08-23T04:25:28.061Z,17.05
2018-08-23T04:27:54.527Z,16.98
2018-08-23T04:30:21.313Z,17.00
2018-08-23T04:32:48.826Z,17.01
2018-08-23T04:35:15.322Z,16.97
2018-08-23T04:37:42.109Z,16.83
2018-08-23T04:40:08.602Z,16.86
2018-08-23T04:42:35.118Z,16.97
2018-08-23T04:45:03.057Z,16.79
2018-08-23T04:47:30.098Z,16.80
2018-08-23T04:49:56.868Z,16.76
2018-08-23T04:52:23.745Z,16.75
2018-08-23T04:54:50.216Z,16.75
2018-08-23T04:57:16.669Z,16.71
2018-08-23T04:59:43.123Z,16.66
2018-08-23T05:02:10.639Z,16.62
2018-08-23T05:04:37.120Z,16.72
2018-08-23T05:07:03.578Z,16.70
2018-08-23T05:09:30.326Z,16.73
2018-08-23T05:11:56.814Z,16.76
2018-08-23T05:14:24.209Z,16.93
2018-08-23T05:16:50.975Z,17.16
2018-08-23T05:19:17.470Z,17.38
2018-08-23T05:21:43.954Z,17.44
2018-08-23T05:24:10.729Z,17.49
2018-08-23T05:26:37.225Z,17.48
2018-08-23T05:29:03.730Z,17.41
2018-08-23T05:31:30.510Z,17.40
2018-08-23T05:33:58.631Z,17.36
2018-08-23T05:36:25.118Z,17.38
2018-08-23T05:38:51.898Z,17.48
2018-08-23T05:41:18.394Z,17.51
2018-08-23T05:43:44.883Z,17.51
2018-08-23T05:46:11.641Z,17.55
2018-08-23T05:48:38.103Z,17.60
2018-08-23T05:51:04.593Z,17.71
2018-08-23T05:53:32.430Z,17.82
2018-08-23T05:55:58.959Z,17.80
2018-08-23T05:58:25.630Z,17.86
2018-08-23T06:00:52.465Z,17.87
2018-08-23T06:03:18.949Z,17.86
2018-08-23T06:05:45.407Z,17.98
2018-08-23T06:08:12.186Z,18.28
2018-08-23T06:10:38.721Z,18.54
2018-08-23T06:13:05.223Z,18.51
2018-08-23T06:15:31.997Z,18.63
2018-08-23T06:17:58.484Z,18.73
2018-08-23T06:20:25.468Z,18.77
2018-08-23T06:22:52.249Z,18.71
2018-08-23T06:25:18.705Z,18.66
2018-08-23T06:27:45.187Z,18.79
2018-08-23T06:30:11.960Z,18.94
2018-08-23T06:32:38.457Z,19.04
2018-08-23T06:35:04.962Z,19.07
2018-08-23T06:37:31.745Z,19.10
2018-08-23T06:39:58.262Z,19.13
2018-08-23T06:42:24.715Z,19.16
2018-08-23T06:44:51.891Z,19.18
2018-08-23T06:47:18.366Z,19.38
2018-08-23T06:49:44.854Z,19.56
2018-08-23T06:52:12.435Z,19.72
2018-08-23T06:54:39.003Z,20.01
2018-08-23T06:57:05.483Z,20.11
2018-08-23T06:59:32.238Z,20.27
2018-08-23T07:01:58.734Z,20.45
2018-08-23T07:04:25.210Z,20.58
2018-08-23T07:06:52.040Z,20.65
2018-08-23T07:09:19.436Z,20.75
2018-08-23T07:11:46.009Z,20.76
2018-08-23T07:14:12.750Z,20.85
2018-08-23T07:16:39.227Z,20.91
2018-08-23T07:19:05.803Z,20.93
2018-08-23T07:21:32.560Z,21.01
2018-08-23T07:23:59.033Z,21.09
2018-08-23T07:26:25.561Z,21.23
2018-08-23T07:28:52.344Z,21.20
2018-08-23T07:31:18.834Z,21.31
2018-08-23T07:33:46.131Z,21.35
2018-08-23T07:36:12.930Z,21.45
2018-08-23T07:38:39.389Z,21.56
2018-08-23T07:41:05.862Z,21.64
2018-08-23T07:43:32.628Z,21.74
2018-08-23T07:45:59.326Z,21.86
2018-08-23T07:48:26.606Z,21.90
2018-08-23T07:50:53.346Z,21.99
2018-08-23T07:53:19.897Z,22.05
2018-08-23T07:55:46.348Z,22.15
2018-08-23T07:58:13.176Z,22.33
2018-08-23T08:00:39.635Z,22.36
2018-08-23T08:03:06.594Z,22.51
2018-08-23T08:05:36.195Z,22.58
2018-08-23T08:08:02.678Z,22.65
2018-08-23T08:10:29.186Z,22.71
2018-08-23T08:12:55.929Z,22.88
2018-08-23T08:15:22.669Z,22.91
2018-08-23T08:17:49.965Z,23.00
2018-08-23T08:20:17.530Z,23.27
2018-08-23T08:22:45.501Z,23.26
2018-08-23T08:25:11.983Z,23.24
2018-08-23T08:27:38.775Z,23.34
2018-08-23T08:30:07.100Z,23.28
2018-08-23T08:32:34.156Z,23.13
2018-08-23T08:35:00.942Z,23.07
2018-08-23T08:37:27.450Z,23.41
2018-08-23T08:39:53.960Z,23.78
2018-08-23T08:42:20.757Z,23.67
2018-08-23T08:44:47.238Z,23.86
2018-08-23T08:47:13.690Z,23.83
2018-08-23T08:49:40.169Z,23.89
2018-08-23T08:52:06.661Z,24.06
2018-08-23T08:54:33.431Z,24.06
2018-08-23T08:57:03.593Z,24.18
2018-08-23T08:59:30.077Z,24.41
2018-08-23T09:01:56.879Z,24.77
2018-08-23T09:04:23.394Z,24.89
2018-08-23T09:06:50.928Z,24.71
2018-08-23T09:09:17.681Z,24.58
2018-08-23T09:11:44.166Z,24.48
2018-08-23T09:14:12.284Z,24.57
2018-08-23T09:16:39.229Z,24.88
2018-08-23T09:19:05.719Z,24.71
2018-08-23T09:21:32.195Z,24.62
2018-08-23T09:23:58.942Z,24.73
2018-08-23T09:26:25.393Z,25.07
2018-08-23T09:28:51.866Z,25.13
2018-08-23T09:31:18.697Z,25.32
2018-08-23T09:33:45.230Z,25.37
2018-08-23T09:36:12.603Z,25.52
2018-08-23T09:38:41.332Z,25.59
2018-08-23T09:41:07.800Z,25.54
2018-08-23T09:43:34.268Z,25.47
2018-08-23T09:46:03.636Z,25.09
2018-08-23T09:48:30.084Z,25.25
2018-08-23T09:50:56.581Z,25.50
2018-08-23T09:53:23.322Z,25.70
2018-08-23T09:55:51.160Z,25.90
2018-08-23T09:58:19.106Z,26.33
2018-08-23T10:00:48.465Z,25.94
2018-08-23T10:03:14.957Z,26.31
2018-08-23T10:05:41.442Z,26.43
2018-08-23T10:08:08.302Z,26.35
2018-08-23T10:10:34.921Z,26.09
2018-08-23T10:13:01.393Z,26.15
2018-08-23T10:15:28.135Z,26.31
2018-08-23T10:17:54.589Z,26.69
2018-08-23T10:20:22.017Z,26.41
2018-08-23T10:22:48.940Z,26.44
2018-08-23T10:25:15.717Z,26.15
2018-08-23T10:27:43.238Z,25.81
2018-08-23T10:30:10.153Z,26.13
2018-08-23T10:32:37.160Z,26.26
2018-08-23T10:35:03.762Z,26.65
2018-08-23T10:37:30.513Z,26.51
2018-08-23T10:39:57.229Z,26.74
2018-08-23T10:42:23.699Z,26.68
2018-08-23T10:44:50.580Z,27.28
2018-08-23T10:47:17.133Z,27.46
2018-08-23T10:49:43.797Z,27.06
2018-08-23T10:52:10.678Z,27.41
2018-08-23T10:57:08.417Z,27.66
2018-08-23T10:59:38.314Z,27.59
2018-08-23T11:02:05.437Z,27.76
2018-08-23T11:04:31.987Z,27.99
2018-08-23T11:06:58.729Z,27.88
2018-08-23T11:09:25.389Z,27.36
2018-08-23T11:11:52.002Z,27.22
2018-08-23T11:14:19.517Z,27.12
2018-08-23T11:16:47.418Z,26.89
2018-08-23T11:19:15.221Z,26.54
2018-08-23T11:21:43.001Z,26.70
2018-08-23T11:24:09.499Z,26.53
2018-08-23T11:26:36.265Z,26.60
2018-08-23T11:29:03.086Z,26.24
2018-08-23T11:38:25.256Z,27.36
2018-08-23T11:40:52.108Z,27.65
2018-08-23T11:43:18.687Z,27.25
2018-08-23T11:45:47.125Z,27.07
2018-08-23T11:48:14.591Z,27.15
2018-08-23T11:50:41.445Z,26.89
2018-08-23T11:53:08.089Z,26.72
2018-08-23T11:58:08.399Z,26.99
2018-08-23T12:00:35.254Z,26.98
2018-08-23T12:03:02.383Z,26.93
2018-08-23T12:05:32.166Z,26.97
2018-08-23T12:07:58.747Z,27.28
2018-08-23T12:10:25.551Z,27.52
2018-08-23T12:12:52.353Z,27.74
2018-08-23T12:15:19.480Z,28.02
2018-08-23T12:17:45.950Z,27.86
2018-08-23T12:20:12.767Z,28.17
2018-08-23T12:22:39.356Z,28.27
2018-08-23T12:25:05.833Z,27.98
2018-08-23T12:27:32.682Z,27.82
2018-08-23T12:29:59.209Z,27.44
2018-08-23T12:32:25.730Z,27.44
2018-08-23T12:34:52.856Z,27.37
2018-08-23T12:37:19.438Z,27.69
2018-08-23T12:39:46.545Z,27.83
2018-08-23T12:42:13.329Z,28.17
2018-08-23T12:44:39.857Z,28.28
2018-08-23T12:47:08.399Z,28.28
2018-08-23T12:49:37.436Z,28.21
2018-08-23T12:52:07.752Z,28.37
2018-08-23T12:54:34.778Z,28.14
2018-08-23T12:57:02.665Z,28.22
2018-08-23T12:59:30.885Z,28.49
2018-08-23T13:01:57.472Z,28.67
2018-08-23T13:04:24.433Z,28.75
2018-08-23T13:06:50.834Z,28.86
2018-08-23T13:09:17.425Z,28.55
2018-08-23T13:11:47.202Z,27.95
2018-08-23T13:14:14.358Z,27.40
2018-08-23T13:16:42.111Z,27.79
2018-08-23T13:19:09.967Z,28.37
2018-08-23T13:21:36.462Z,28.12
2018-08-23T13:24:04.159Z,27.94
2018-08-23T13:26:30.957Z,28.38
2018-08-23T13:28:57.489Z,28.36
2018-08-23T13:31:23.978Z,28.52
2018-08-23T13:33:51.394Z,28.45
2018-08-23T13:36:17.997Z,28.14
2018-08-23T13:38:44.451Z,27.73
2018-08-23T13:41:14.319Z,27.46
2018-08-23T13:43:40.823Z,27.34
2018-08-23T13:46:07.322Z,27.65
2018-08-23T13:48:34.414Z,27.64
2018-08-23T13:51:00.895Z,27.28
2018-08-23T13:53:27.407Z,27.30
2018-08-23T13:55:54.988Z,27.49
2018-08-23T13:58:21.535Z,27.44
2018-08-23T14:00:49.708Z,27.09
2018-08-23T14:03:16.525Z,26.79
2018-08-23T14:05:43.036Z,26.70
2018-08-23T14:08:09.527Z,26.54
2018-08-23T14:10:36.271Z,26.78
2018-08-23T14:13:02.762Z,27.75
2018-08-23T14:15:30.392Z,28.13
2018-08-23T14:17:57.484Z,27.96
2018-08-23T14:20:25.391Z,27.43
2018-08-23T14:22:51.933Z,27.05
2018-08-23T14:25:18.758Z,27.59
2018-08-23T14:27:45.354Z,27.40
2018-08-23T14:30:12.508Z,27.63
2018-08-23T14:32:39.316Z,28.81
2018-08-23T14:35:05.866Z,29.26
2018-08-23T14:37:32.939Z,29.35
2018-08-23T14:40:01.878Z,28.55
2018-08-23T14:42:29.416Z,27.71
2018-08-23T14:44:56.919Z,27.15
2018-08-23T14:47:23.722Z,26.75
2018-08-23T14:49:51.157Z,26.69
2018-08-23T14:52:17.685Z,26.81
2018-08-23T14:54:44.473Z,27.29
2018-08-23T14:57:10.969Z,27.44
2018-08-23T14:59:38.481Z,28.88
2018-08-23T15:02:05.449Z,29.12
2018-08-23T15:04:31.965Z,29.06
2018-08-23T15:09:37.822Z,28.70
2018-08-23T15:12:04.391Z,27.38
2018-08-23T15:14:35.908Z,27.02
2018-08-23T15:17:08.181Z,27.89
2018-08-23T15:19:37.461Z,27.40
2018-08-23T15:22:03.975Z,27.17
2018-08-23T15:24:30.970Z,27.91
2018-08-23T15:26:58.470Z,29.47
2018-08-23T15:29:26.006Z,29.98
2018-08-23T15:31:55.198Z,30.02
2018-08-23T15:34:21.687Z,29.78
2018-08-23T15:36:48.157Z,29.55
2018-08-23T15:39:14.930Z,29.92
2018-08-23T15:41:41.450Z,29.73
2018-08-23T15:44:07.966Z,30.16
2018-08-23T15:46:34.742Z,29.80
2018-08-23T15:49:01.228Z,29.52
2018-08-23T15:51:27.761Z,29.73
2018-08-23T15:53:55.377Z,29.71
2018-08-23T15:56:22.564Z,29.72
2018-08-23T15:58:49.835Z,29.55
2018-08-23T16:01:22.949Z,29.37
2018-08-23T16:06:26.189Z,29.24
2018-08-23T16:08:52.682Z,28.64
2018-08-23T16:11:19.296Z,28.87
2018-08-23T16:13:46.363Z,29.17
2018-08-23T16:16:12.875Z,28.86
2018-08-23T16:18:39.541Z,28.85
2018-08-23T16:21:08.260Z,29.10
2018-08-23T16:23:35.369Z,28.63
2018-08-23T16:26:01.980Z,28.20
2018-08-23T16:28:29.418Z,28.20
2018-08-23T16:30:55.913Z,27.36
2018-08-23T16:33:23.415Z,26.89
2018-08-23T16:35:50.214Z,27.57
2018-08-23T16:38:17.442Z,28.51
2018-08-23T16:40:43.962Z,28.56
2018-08-23T16:43:10.728Z,28.45
2018-08-23T16:45:38.493Z,28.23
2018-08-23T16:50:38.161Z,27.62
2018-08-23T16:53:04.673Z,27.58
2018-08-23T16:55:31.190Z,27.41
2018-08-23T16:57:59.497Z,27.59
2018-08-23T17:00:27.979Z,27.25
2018-08-23T17:02:55.042Z,26.80
2018-08-23T17:05:22.522Z,26.59
2018-08-23T17:07:51.215Z,26.72
2018-08-23T17:10:20.533Z,26.93
2018-08-23T17:12:48.065Z,27.03
2018-08-23T17:15:15.258Z,26.98
2018-08-23T17:17:41.844Z,27.03
2018-08-23T17:20:09.581Z,26.96
2018-08-23T17:22:39.281Z,26.83
2018-08-23T17:25:05.798Z,26.78
2018-08-23T17:27:33.575Z,26.87
2018-08-23T17:30:01.553Z,27.17
2018-08-23T17:32:28.057Z,27.23
2018-08-23T17:34:55.358Z,27.10
2018-08-23T17:37:21.874Z,26.92
2018-08-23T17:39:48.421Z,26.69
2018-08-23T17:42:18.658Z,26.68
2018-08-23T17:44:46.101Z,26.42
2018-08-23T17:47:12.581Z,26.08
2018-08-23T17:49:39.422Z,25.97
2018-08-23T17:52:05.897Z,26.00
2018-08-23T17:54:32.412Z,25.75
2018-08-23T17:57:04.234Z,25.61
2018-08-23T17:59:30.784Z,25.52
2018-08-23T18:01:57.400Z,25.45
2018-08-23T18:04:24.158Z,25.29
2018-08-23T18:06:50.730Z,25.06
2018-08-23T18:09:18.158Z,24.86
2018-08-23T18:11:44.982Z,24.65
2018-08-23T18:14:11.479Z,24.35
2018-08-23T18:16:38.478Z,24.09
2018-08-23T18:19:05.326Z,23.84
2018-08-23T18:21:33.187Z,23.51
2018-08-23T18:26:32.203Z,23.17
2018-08-23T18:28:59.652Z,23.08
2018-08-23T18:31:26.409Z,22.97
2018-08-23T18:33:54.391Z,22.85
2018-08-23T18:36:20.893Z,22.78
2018-08-23T18:38:47.377Z,22.73
2018-08-23T18:41:14.200Z,22.61
2018-08-23T18:43:40.715Z,22.52
2018-08-23T18:46:07.251Z,22.46
2018-08-23T18:48:34.021Z,22.33
2018-08-23T18:51:00.622Z,22.29
2018-08-23T18:53:27.153Z,22.20
2018-08-23T18:55:55.104Z,22.14
2018-08-23T18:58:22.094Z,22.07
2018-08-23T19:00:48.614Z,21.98
2018-08-23T19:03:18.516Z,21.95
2018-08-23T19:05:46.160Z,21.89
2018-08-23T19:08:12.744Z,21.83
2018-08-23T19:10:39.508Z,21.79
2018-08-23T19:13:08.041Z,21.71
2018-08-23T19:15:35.221Z,21.68
2018-08-23T19:18:02.054Z,21.59
2018-08-23T19:20:29.325Z,21.54
2018-08-23T19:22:56.473Z,21.42
2018-08-23T19:25:25.586Z,21.34
2018-08-23T19:27:53.579Z,21.29
2018-08-23T19:30:20.306Z,21.21
2018-08-23T19:32:47.100Z,21.13
2018-08-23T19:35:15.277Z,21.07
2018-08-23T19:37:41.812Z,20.99
2018-08-23T19:40:08.603Z,20.92
2018-08-23T19:42:38.810Z,20.85
2018-08-23T19:45:05.583Z,20.80
2018-08-23T19:47:32.440Z,20.73
2018-08-23T19:49:58.945Z,20.64
2018-08-23T19:52:25.518Z,20.61
2018-08-23T19:54:54.282Z,20.60
2018-08-23T19:57:20.922Z,20.55
2018-08-23T19:59:47.438Z,20.45
2018-08-23T20:02:15.249Z,20.42
2018-08-23T20:04:42.410Z,20.40
2018-08-23T20:07:08.906Z,20.35
2018-08-23T20:09:35.709Z,20.34
2018-08-23T20:12:02.290Z,20.26
2018-08-23T20:14:29.543Z,20.21
2018-08-23T20:16:56.340Z,20.17
2018-08-23T20:19:22.802Z,20.15
2018-08-23T20:21:50.292Z,20.15
2018-08-23T20:24:17.934Z,20.11
2018-08-23T20:26:44.465Z,20.07
2018-08-23T20:29:19.873Z,20.02
2018-08-23T20:31:48.329Z,20.00
2018-08-23T20:34:15.485Z,20.03
2018-08-23T20:36:43.459Z,19.98
2018-08-23T20:39:12.070Z,19.91
2018-08-23T20:41:40.813Z,19.91
2018-08-23T20:44:08.453Z,19.88
2018-08-23T20:46:35.694Z,19.86
2018-08-23T20:49:03.053Z,19.85
2018-08-23T20:51:31.455Z,19.81
2018-08-23T20:53:57.945Z,19.77
2018-08-23T20:56:24.435Z,19.73
2018-08-23T20:58:52.074Z,19.71
2018-08-23T21:01:19.146Z,19.68
2018-08-23T21:03:46.736Z,19.67
2018-08-23T21:06:14.500Z,19.70
2018-08-23T21:08:41.030Z,19.69
2018-08-23T21:11:07.533Z,19.72
2018-08-23T21:13:34.303Z,19.69
2018-08-23T21:16:01.727Z,19.71
2018-08-23T21:18:28.702Z,19.66
2018-08-23T21:20:56.454Z,19.62
2018-08-23T21:23:23.472Z,19.59
2018-08-23T21:28:22.849Z,19.49
2018-08-23T21:30:49.356Z,19.50
2018-08-23T21:33:15.835Z,19.50
2018-08-23T21:35:42.638Z,19.52
2018-08-23T21:38:09.136Z,19.57
2018-08-23T21:40:35.602Z,19.58
2018-08-23T21:43:02.353Z,19.61
2018-08-23T21:45:28.846Z,19.56
2018-08-23T21:47:55.340Z,19.52
2018-08-23T21:50:23.578Z,19.48
2018-08-23T21:52:51.094Z,19.48
2018-08-23T21:55:17.591Z,19.48
2018-08-23T21:57:45.261Z,19.45
2018-08-23T22:00:11.771Z,19.45
2018-08-23T22:02:38.759Z,19.49
2018-08-23T22:05:05.528Z,19.50
2018-08-23T22:07:35.654Z,19.48
2018-08-23T22:10:02.183Z,19.46
2018-08-23T22:12:28.706Z,19.42
2018-08-23T22:14:55.232Z,19.42
2018-08-23T22:17:22.092Z,19.36
2018-08-23T22:19:48.651Z,19.33
2018-08-23T22:22:15.247Z,19.31
2018-08-23T22:24:42.036Z,19.28
2018-08-23T22:27:08.504Z,19.29
2018-08-23T22:29:34.993Z,19.28
2018-08-23T22:32:01.751Z,19.25
2018-08-23T22:34:28.222Z,19.20
2018-08-23T22:36:54.673Z,19.19
2018-08-23T22:39:21.229Z,19.19
2018-08-23T22:41:47.707Z,19.18
2018-08-23T22:44:14.560Z,19.18
2018-08-23T22:46:42.294Z,19.16
2018-08-23T22:49:08.794Z,19.17
2018-08-23T22:51:35.754Z,19.14
2018-08-23T22:54:02.261Z,19.13
2018-08-23T22:56:29.547Z,19.12
2018-08-23T22:58:56.357Z,19.14
2018-08-23T23:01:22.854Z,19.15
2018-08-23T23:03:49.376Z,19.18
2018-08-23T23:06:16.177Z,19.20
2018-08-23T23:08:42.666Z,19.19
2018-08-23T23:11:09.163Z,19.24
2018-08-23T23:13:36.312Z,19.26
2018-08-23T23:16:02.787Z,19.27
2018-08-23T23:18:29.270Z,19.29
2018-08-23T23:20:55.737Z,19.28
2018-08-23T23:23:23.270Z,19.29
2018-08-23T23:25:49.943Z,19.27
2018-08-23T23:28:16.571Z,19.25
2018-08-23T23:30:44.320Z,19.24
2018-08-23T23:33:11.363Z,19.20
2018-08-23T23:35:38.764Z,19.13
2018-08-23T23:38:05.441Z,19.12
2018-08-23T23:40:32.243Z,19.08
2018-08-23T23:42:58.795Z,19.01
2018-08-23T23:45:25.280Z,19.00
2018-08-23T23:47:52.105Z,18.98
2018-08-23T23:50:18.573Z,18.94
2018-08-23T23:52:45.053Z,18.90
2018-08-23T23:55:11.845Z,18.92
2018-08-23T23:57:38.337Z,18.93
